1863 Tropical Storm NOT_NAMED (1863255N15300)


IBTrACS version v04r00. Visit IBTrACS website for data access.
Please direct all questions to the IBTrACS Q and A forum

Storm track - Intensity - Wind Radii - Intensity Data - Source Data - All data

Summary Information

Storm ID 1863255N15300
Start Sep 11 12Z
Landfall Sep 15 18Z, Sep 16 12Z, Sep 17 12Z
Max Intensity 55 kt (Sep 16 12Z)
End Sep 20 00Z
ATCF IDs
Track status Best track data.

Storm track plot

Map of storm track

Intensity plots

Map of storm track

Radial wind information

No radial wind information for this storm


Position and Intensity Table

BASIN ISO_TIME_________ NATURE LAT LON MLC WIND
degrees north degrees east kts
NA 1863-09-11 12:00:00 TS 14.50 -59.80 35
NA 15:00:00 TS 14.90 -60.25 35
NA 18:00:00 TS 15.30 -60.70 35
NA 21:00:00 TS 15.70 -61.15 35
NA 1863-09-12 00:00:00 TS 16.10 -61.60 35
NA 03:00:00 TS 16.50 -62.04 35
NA 06:00:00 TS 16.90 -62.50 35
NA 09:00:00 TS 17.31 -62.97 35
NA 12:00:00 TS 17.70 -63.50 35
NA 15:00:00 TS 18.02 -64.13 32
NA 18:00:00 TS 18.30 -64.80 30
NA 21:00:00 TS 18.56 -65.45 30
NA 1863-09-13 00:00:00 TS 18.80 -66.10 30
NA 03:00:00 TS 19.05 -66.75 30
NA 06:00:00 TS 19.30 -67.40 30
NA 09:00:00 TS 19.54 -68.05 30
NA 12:00:00 TS 19.80 -68.70 30
NA 15:00:00 TS 20.10 -69.35 30
NA 18:00:00 TS 20.40 -70.00 30
NA 21:00:00 TS 20.65 -70.65 30
NA 1863-09-14 00:00:00 TS 20.90 -71.30 30
NA 03:00:00 TS 21.20 -71.96 30
NA 06:00:00 TS 21.50 -72.60 30
NA 09:00:00 TS 21.76 -73.23 32
NA 12:00:00 TS 22.00 -73.80 35
NA 15:00:00 TS 22.25 -74.27 35
NA 18:00:00 TS 22.50 -74.70 35
NA 21:00:00 TS 22.75 -75.15 37
NA 1863-09-15 00:00:00 TS 23.00 -75.60 40
NA 03:00:00 TS 23.25 -76.04 40
NA 06:00:00 TS 23.50 -76.50 40
NA 09:00:00 TS 23.73 -77.03 42
NA 12:00:00 TS 24.00 -77.50 45
NA 15:00:00 TS 24.38 -77.79 45
NA 18:00:00 TS 24.80 -78.00 45
NA 21:00:00 TS 25.20 -78.22 47
NA 1863-09-16 00:00:00 TS 25.60 -78.50 50
NA 03:00:00 TS 26.00 -78.92 50
NA 06:00:00 TS 26.40 -79.40 50
NA 09:00:00 TS 26.80 -79.89 52
NA 12:00:00 TS 27.20 -80.30 55
NA 15:00:00 TS 27.60 -80.50 55
NA 18:00:00 TS 28.00 -80.60 55
NA 21:00:00 TS 28.38 -80.75 55
NA 1863-09-17 00:00:00 TS 28.80 -80.90 55
NA 03:00:00 TS 29.28 -81.05 55
NA 06:00:00 TS 29.80 -81.20 55
NA 09:00:00 TS 30.25 -81.34 55
NA 12:00:00 TS 30.80 -81.50 55
NA 15:00:00 TS 31.59 -81.82 55
NA 18:00:00 TS 32.40 -82.00 55
NA 21:00:00 TS 32.94 -81.79 52
NA 1863-09-18 00:00:00 TS 33.60 -81.30 50
NA 03:00:00 TS 34.74 -80.67 47
NA 06:00:00 TS 36.00 -79.90 45
NA 09:00:00 TS 37.03 -79.09 42
NA 12:00:00 TS 38.00 -78.30 40
NA 13:00:00 TS 38.33 -78.07 40
NA 15:00:00 TS 39.00 -77.64 40
NA 18:00:00 TS 40.00 -77.00 40
NA 21:00:00 TS 41.11 -76.27 40
NA 1863-09-19 00:00:00 ET 42.00 -75.50 40
NA 03:00:00 ET 42.31 -74.77 40
NA 06:00:00 ET 42.50 -74.00 40
NA 09:00:00 ET 42.99 -73.18 40
NA 12:00:00 ET 43.70 -72.20 40
NA 15:00:00 ET 44.61 -71.03 37
NA 18:00:00 ET 45.70 -69.50 35
NA 21:00:00 ET 46.85 -67.51 35
NA 1863-09-20 00:00:00 ET 48.00 -65.20 35

Source Information

Agency Information
USA
TOKYO
CMA
HKO
NEWDELHI
REUNION
BOM
NADI
WELLINGTON
DS824
TD9636
TD9635
NEUMANN
MLC

All available IBTrACS Data

SEASON BASIN SUBBASIN ISO_TIME_________ NATURE LAT LON DIST2LAND LANDFALL IFLAG USA SSHS MLC LAT MLC LON MLC CLASS MLC WIND STORM SPEED STORM DIR
Year degrees north degrees east km km 1 degrees north degrees east kts kts degrees
1863 NA CS 1863-09-11 12:00:00 TS 14.50 -59.80 445 445 _____________O -1 14.50 -59.80 TS 35 12 313
1863 NA CS 15:00:00 TS 14.90 -60.25 478 476 _____________P -1 14.90 -60.25 TS 35 12 313
1863 NA CS 18:00:00 TS 15.30 -60.70 516 515 _____________O -1 15.30 -60.70 TS 35 12 313
1863 NA CS 21:00:00 TS 15.70 -61.15 545 485 _____________P -1 15.70 -61.15 TS 35 12 313
1863 NA CS 1863-09-12 00:00:00 TS 16.10 -61.60 485 426 _____________O -1 16.10 -61.60 TS 35 12 313
1863 NA CS 03:00:00 TS 16.50 -62.04 426 359 _____________P -1 16.50 -62.04 TS 35 12 313
1863 NA CS 06:00:00 TS 16.90 -62.50 359 303 _____________O -1 16.90 -62.50 TS 35 12 313
1863 NA CS 09:00:00 TS 17.31 -62.97 293 229 _____________P -1 17.31 -62.97 TS 35 12 310
1863 NA CS 12:00:00 TS 17.70 -63.50 229 160 _____________O -1 17.70 -63.50 TS 35 13 303
1863 NA CS 15:00:00 TS 18.02 -64.13 160 84 _____________P -1 18.02 -64.13 TS 32 14 296
1863 NA CS 18:00:00 TS 18.30 -64.80 84 23 _____________O -1 18.30 -64.80 TD 30 14 293
1863 NA CS 21:00:00 TS 18.56 -65.45 24 22 _____________P -1 18.56 -65.45 TD 30 13 292
1863 NA NA 1863-09-13 00:00:00 TS 18.80 -66.10 44 44 _____________O -1 18.80 -66.10 TD 30 13 292
1863 NA NA 03:00:00 TS 19.05 -66.75 67 67 _____________P -1 19.05 -66.75 TD 30 13 292
1863 NA NA 06:00:00 TS 19.30 -67.40 101 100 _____________O -1 19.30 -67.40 TD 30 13 292
1863 NA NA 09:00:00 TS 19.54 -68.05 94 84 _____________P -1 19.54 -68.05 TD 30 13 292
1863 NA NA 12:00:00 TS 19.80 -68.70 84 74 _____________O -1 19.80 -68.70 TD 30 13 295
1863 NA NA 15:00:00 TS 20.10 -69.35 84 78 _____________P -1 20.10 -69.35 TD 30 14 296
1863 NA NA 18:00:00 TS 20.40 -70.00 88 81 _____________O -1 20.40 -70.00 TD 30 13 294
1863 NA NA 21:00:00 TS 20.65 -70.65 89 89 _____________P -1 20.65 -70.65 TD 30 13 292
1863 NA NA 1863-09-14 00:00:00 TS 20.90 -71.30 123 114 _____________O -1 20.90 -71.30 TD 30 13 294
1863 NA NA 03:00:00 TS 21.20 -71.96 103 53 _____________P -1 21.20 -71.96 TD 30 14 296
1863 NA NA 06:00:00 TS 21.50 -72.60 53 44 _____________O -1 21.50 -72.60 TD 30 13 295
1863 NA NA 09:00:00 TS 21.76 -73.23 67 67 _____________P -1 21.76 -73.23 TD 32 12 294
1863 NA NA 12:00:00 TS 22.00 -73.80 101 101 _____________O -1 22.00 -73.80 TS 35 11 297
1863 NA NA 15:00:00 TS 22.25 -74.27 137 137 _____________P -1 22.25 -74.27 TS 35 10 301
1863 NA NA 18:00:00 TS 22.50 -74.70 187 186 _____________O -1 22.50 -74.70 TS 35 10 302
1863 NA NA 21:00:00 TS 22.75 -75.15 194 194 _____________P -1 22.75 -75.15 TS 37 10 301
1863 NA NA 1863-09-15 00:00:00 TS 23.00 -75.60 210 202 _____________O -1 23.00 -75.60 TS 40 10 301
1863 NA NA 03:00:00 TS 23.25 -76.04 202 165 _____________P -1 23.25 -76.04 TS 40 10 301
1863 NA NA 06:00:00 TS 23.50 -76.50 165 113 _____________O -1 23.50 -76.50 TS 40 10 298
1863 NA NA 09:00:00 TS 23.73 -77.03 113 52 _____________P -1 23.73 -77.03 TS 42 10 299
1863 NA NA 12:00:00 TS 24.00 -77.50 52 10 _____________O -1 24.00 -77.50 TS 45 10 313
1863 NA NA 15:00:00 TS 24.38 -77.79 10 0 _____________P -1 24.38 -77.79 TS 45 9 330
1863 NA NA 18:00:00 TS 24.80 -78.00 0 0 _____________O -1 24.80 -78.00 TS 45 9 334
1863 NA NA 21:00:00 TS 25.20 -78.22 15 15 _____________P -1 25.20 -78.22 TS 47 9 330
1863 NA NA 1863-09-16 00:00:00 TS 25.60 -78.50 68 68 _____________O -1 25.60 -78.50 TS 50 10 322
1863 NA NA 03:00:00 TS 26.00 -78.92 119 69 _____________P -1 26.00 -78.92 TS 50 11 315
1863 NA NA 06:00:00 TS 26.40 -79.40 69 9 _____________O -1 26.40 -79.40 TS 50 12 312
1863 NA NA 09:00:00 TS 26.80 -79.89 9 0 _____________P -1 26.80 -79.89 TS 52 11 315
1863 NA NA 12:00:00 TS 27.20 -80.30 0 0 _____________O -1 27.20 -80.30 TS 55 10 326
1863 NA NA 15:00:00 TS 27.60 -80.50 0 0 _____________P -1 27.60 -80.50 TS 55 8 342
1863 NA NA 18:00:00 TS 28.00 -80.60 0 0 _____________O -1 28.00 -80.60 TS 55 8 344
1863 NA NA 21:00:00 TS 28.38 -80.75 0 0 _____________P -1 28.38 -80.75 TS 55 8 342
1863 NA NA 1863-09-17 00:00:00 TS 28.80 -80.90 0 0 _____________O -1 28.80 -80.90 TS 55 9 344
1863 NA NA 03:00:00 TS 29.28 -81.05 0 0 _____________P -1 29.28 -81.05 TS 55 10 345
1863 NA NA 06:00:00 TS 29.80 -81.20 9 9 _____________O -1 29.80 -81.20 TS 55 10 346
1863 NA NA 09:00:00 TS 30.25 -81.34 19 0 _____________P -1 30.25 -81.34 TS 55 10 345
1863 NA NA 12:00:00 TS 30.80 -81.50 0 0 _____________O -1 30.80 -81.50 TS 55 14 343
1863 NA NA 15:00:00 TS 31.59 -81.82 0 0 _____________P -1 31.59 -81.82 TS 55 17 345
1863 NA NA 18:00:00 TS 32.40 -82.00 0 0 _____________O -1 32.40 -82.00 TS 55 14 0
1863 NA NA 21:00:00 TS 32.94 -81.79 0 0 _____________P -1 32.94 -81.79 TS 52 13 26
1863 NA NA 1863-09-18 00:00:00 TS 33.60 -81.30 0 0 _____________O -1 33.60 -81.30 TS 50 20 27
1863 NA NA 03:00:00 TS 34.74 -80.67 0 0 _____________P -1 34.74 -80.67 TS 47 27 26
1863 NA NA 06:00:00 TS 36.00 -79.90 0 0 _____________O -1 36.00 -79.90 TS 45 26 29
1863 NA NA 09:00:00 TS 37.03 -79.09 0 0 _____________P -1 37.03 -79.09 TS 42 24 33
1863 NA NA 12:00:00 TS 38.00 -78.30 0 0 _____________O -1 38.00 -78.30 TS 40 23 32
1863 NA NA 13:00:00 TS 38.33 -78.07 0 0 _____________P -1 38.33 -78.07 TS 40 23 27
1863 NA NA 15:00:00 TS 39.00 -77.64 0 0 _____________P -1 39.00 -77.64 TS 40 22 26
1863 NA NA 18:00:00 TS 40.00 -77.00 0 0 _____________O -1 40.00 -77.00 TS 40 24 26
1863 NA NA 21:00:00 TS 41.11 -76.27 0 0 _____________P -1 41.11 -76.27 TS 40 23 29
1863 NA NA 1863-09-19 00:00:00 ET 42.00 -75.50 0 0 _____________O -1 42.00 -75.50 EX 40 16 43
1863 NA NA 03:00:00 ET 42.31 -74.77 0 0 _____________P -1 42.31 -74.77 EX 40 12 66
1863 NA NA 06:00:00 ET 42.50 -74.00 0 0 _____________O -1 42.50 -74.00 EX 40 13 60
1863 NA NA 09:00:00 ET 42.99 -73.18 0 0 _____________P -1 42.99 -73.18 EX 40 18 48
1863 NA NA 12:00:00 ET 43.70 -72.20 0 0 _____________O -1 43.70 -72.20 EX 40 22 44
1863 NA NA 15:00:00 ET 44.61 -71.03 0 0 _____________P -1 44.61 -71.03 EX 37 28 44
1863 NA NA 18:00:00 ET 45.70 -69.50 0 0 _____________O -1 45.70 -69.50 EX 35 33 48
1863 NA NA 21:00:00 ET 46.85 -67.51 0 0 _____________P -1 46.85 -67.51 EX 35 37 52
1863 NA NA 1863-09-20 00:00:00 ET 48.00 -65.20 0 _____________O -1 48.00 -65.20 EX 35 39 53